createdAt,value
2023-02-06T00:03:25.836Z,74.86
2023-02-06T00:08:28.724Z,75.12
2023-02-06T00:13:36.736Z,74.94
2023-02-06T00:18:38.692Z,75.07
2023-02-06T00:23:41.865Z,75.17
2023-02-06T00:28:44.767Z,75.10
2023-02-06T00:33:47.349Z,75.13
2023-02-06T00:38:52.522Z,75.17
2023-02-06T00:43:55.182Z,75.10
2023-02-06T00:48:58.948Z,75.05
2023-02-06T00:54:01.247Z,75.27
2023-02-06T00:59:04.026Z,75.19
2023-02-06T01:04:07.176Z,75.33
2023-02-06T01:09:13.341Z,75.28
2023-02-06T01:14:15.948Z,75.29
2023-02-06T01:19:21.483Z,75.41
2023-02-06T01:24:26.502Z,75.64
2023-02-06T01:29:28.810Z,75.48
2023-02-06T01:34:46.219Z,75.46
2023-02-06T01:39:48.686Z,75.51
2023-02-06T01:45:20.242Z,75.59
2023-02-06T01:50:22.929Z,75.85
2023-02-06T01:55:24.978Z,75.83
2023-02-06T02:00:27.290Z,76.03
2023-02-06T02:05:29.994Z,76.11
2023-02-06T02:10:33.363Z,76.16
2023-02-06T02:15:49.289Z,76.05
2023-02-06T02:21:35.287Z,76.30
2023-02-06T02:26:56.776Z,76.37
2023-02-06T02:32:35.858Z,76.48
2023-02-06T02:38:03.722Z,76.63
2023-02-06T02:43:20.369Z,76.59
2023-02-06T02:48:40.917Z,76.62
2023-02-06T02:53:43.227Z,76.77
2023-02-06T02:58:50.483Z,77.05
2023-02-06T03:03:57.589Z,77.06
2023-02-06T03:09:26.232Z,76.68
2023-02-06T03:14:39.313Z,76.84
2023-02-06T03:19:52.338Z,76.88
2023-02-06T03:24:59.077Z,76.73
2023-02-06T03:30:03.830Z,76.82
2023-02-06T03:35:17.802Z,77.18
2023-02-06T03:40:20.975Z,77.60
2023-02-06T03:45:27.185Z,77.99
2023-02-06T03:50:31.940Z,78.08
2023-02-06T03:55:37.133Z,77.83
2023-02-06T04:00:41.701Z,77.92
2023-02-06T04:05:43.622Z,77.82
2023-02-06T04:10:45.674Z,77.88
2023-02-06T04:15:48.018Z,77.75
2023-02-06T04:20:53.084Z,77.90
2023-02-06T04:25:55.023Z,78.24
2023-02-06T04:30:57.254Z,78.44
2023-02-06T04:35:59.340Z,78.21
2023-02-06T04:41:03.485Z,78.41
2023-02-06T04:46:05.855Z,78.32
2023-02-06T04:51:08.442Z,77.95
2023-02-06T04:56:12.193Z,77.96
2023-02-06T05:01:16.788Z,77.88
2023-02-06T05:06:22.573Z,77.63
2023-02-06T05:11:26.807Z,77.86
2023-02-06T05:16:29.063Z,77.81
2023-02-06T05:21:31.170Z,77.67
2023-02-06T05:26:33.610Z,77.85
2023-02-06T05:31:36.304Z,78.07
2023-02-06T05:36:38.903Z,78.07
2023-02-06T05:41:40.962Z,78.09
2023-02-06T05:46:44.207Z,78.22
2023-02-06T05:51:47.039Z,78.34
2023-02-06T05:56:49.032Z,78.36
2023-02-06T06:01:51.059Z,78.43
2023-02-06T06:06:56.657Z,78.60
2023-02-06T06:11:58.918Z,78.52
2023-02-06T06:17:01.816Z,78.39
2023-02-06T06:22:06.097Z,78.18
2023-02-06T06:27:10.676Z,78.56
2023-02-06T06:32:13.539Z,78.43
2023-02-06T06:37:15.723Z,78.55
2023-02-06T06:42:18.299Z,78.75
2023-02-06T06:47:20.474Z,78.90
2023-02-06T06:52:25.556Z,78.52
2023-02-06T06:57:32.690Z,78.38
2023-02-06T07:02:37.686Z,78.48
2023-02-06T07:07:39.847Z,78.45
2023-02-06T07:12:42.041Z,78.61
2023-02-06T07:17:44.022Z,78.55
2023-02-06T07:22:47.904Z,78.32
2023-02-06T07:27:49.941Z,78.40
2023-02-06T07:32:52.079Z,78.15
2023-02-06T07:37:54.228Z,78.27
2023-02-06T07:42:56.890Z,78.20
2023-02-06T07:48:04.350Z,78.07
2023-02-06T07:53:07.794Z,77.86
2023-02-06T07:58:13.149Z,77.83
2023-02-06T08:03:18.077Z,77.29
2023-02-06T08:08:25.197Z,77.01
2023-02-06T08:13:28.390Z,76.60
2023-02-06T08:18:30.356Z,76.23
2023-02-06T08:23:32.980Z,76.38
2023-02-06T08:28:35.930Z,76.69
2023-02-06T08:33:38.382Z,76.40
2023-02-06T08:38:42.348Z,76.12
2023-02-06T08:43:48.870Z,75.99
2023-02-06T08:49:17.363Z,75.63
2023-02-06T08:54:22.079Z,75.83
2023-02-06T08:59:24.574Z,75.31
2023-02-06T09:04:31.793Z,75.05
2023-02-06T09:09:37.201Z,74.60
2023-02-06T09:14:39.712Z,74.52
2023-02-06T09:19:42.190Z,74.51
2023-02-06T09:24:47.194Z,73.34
2023-02-06T09:29:52.654Z,73.06
2023-02-06T09:35:01.237Z,72.96
2023-02-06T09:40:06.364Z,72.44
2023-02-06T09:45:26.294Z,71.78
2023-02-06T09:51:06.174Z,71.69
2023-02-06T09:56:24.491Z,71.32
2023-02-06T10:01:38.760Z,71.42
2023-02-06T10:06:54.001Z,70.93
2023-02-06T10:12:18.203Z,71.16
2023-02-06T10:17:26.063Z,70.69
2023-02-06T10:22:54.872Z,70.16
2023-02-06T10:28:06.693Z,69.53
2023-02-06T10:33:26.187Z,69.37
2023-02-06T10:38:55.902Z,69.33
2023-02-06T10:44:16.984Z,69.89
2023-02-06T10:49:40.862Z,68.96
2023-02-06T10:54:52.121Z,68.70
2023-02-06T10:59:59.525Z,68.85
2023-02-06T11:05:09.846Z,68.94
2023-02-06T11:10:18.301Z,68.64
2023-02-06T11:15:46.949Z,68.16
2023-02-06T11:20:51.319Z,67.87
2023-02-06T11:26:19.725Z,67.34
2023-02-06T11:31:45.688Z,67.47
2023-02-06T11:36:52.949Z,67.40
2023-02-06T11:42:03.585Z,67.31
2023-02-06T11:47:28.575Z,67.23
2023-02-06T11:52:34.480Z,66.60
2023-02-06T11:57:36.318Z,66.56
2023-02-06T12:02:51.168Z,66.39
2023-02-06T12:08:05.376Z,66.29
2023-02-06T12:13:28.728Z,66.03
2023-02-06T12:18:39.728Z,66.03
2023-02-06T12:23:56.308Z,65.85
2023-02-06T12:29:16.946Z,65.74
2023-02-06T12:34:24.568Z,65.77
2023-02-06T12:39:32.633Z,65.66
2023-02-06T12:44:47.125Z,65.64
2023-02-06T12:50:34.763Z,65.65
2023-02-06T12:55:45.238Z,65.31
2023-02-06T13:01:01.379Z,64.86
2023-02-06T13:06:21.216Z,65.17
2023-02-06T13:11:28.838Z,65.55
2023-02-06T13:17:21.492Z,65.35
2023-02-06T13:22:45.083Z,65.24
2023-02-06T13:28:14.524Z,65.42
2023-02-06T13:33:43.924Z,65.35
2023-02-06T13:39:46.533Z,65.26
2023-02-06T13:44:55.020Z,65.31
2023-02-06T13:50:53.790Z,65.41
2023-02-06T13:56:39.349Z,65.31
2023-02-06T14:01:53.556Z,65.69
2023-02-06T14:07:21.962Z,65.74
2023-02-06T14:13:16.753Z,65.82
2023-02-06T14:18:40.491Z,66.11
2023-02-06T14:24:14.146Z,65.94
2023-02-06T14:30:02.586Z,65.93
2023-02-06T14:35:25.125Z,65.76
2023-02-06T14:40:31.242Z,66.08
2023-02-06T14:46:06.258Z,66.28
2023-02-06T14:51:39.491Z,66.61
2023-02-06T14:56:47.966Z,66.82
2023-02-06T15:01:56.839Z,66.83
2023-02-06T15:07:36.253Z,67.22
2023-02-06T15:12:39.033Z,67.33
2023-02-06T15:17:55.187Z,67.37
2023-02-06T15:23:17.227Z,68.02
2023-02-06T15:28:25.720Z,68.19
2023-02-06T15:33:32.466Z,68.31
2023-02-06T15:38:34.946Z,68.85
2023-02-06T15:43:46.965Z,69.33
2023-02-06T15:48:53.872Z,69.12
2023-02-06T15:54:22.845Z,69.59
2023-02-06T15:59:26.780Z,70.01
2023-02-06T16:04:39.741Z,70.08
2023-02-06T16:09:53.645Z,70.19
2023-02-06T16:15:00.544Z,70.37
2023-02-06T16:20:26.947Z,70.37
2023-02-06T16:25:31.500Z,70.54
2023-02-06T16:30:36.307Z,70.61
2023-02-06T16:35:39.079Z,71.02
2023-02-06T16:40:41.615Z,71.27
2023-02-06T16:45:43.485Z,71.54
2023-02-06T16:50:47.537Z,71.76
2023-02-06T16:55:50.472Z,71.76
2023-02-06T17:00:52.884Z,71.82
2023-02-06T17:05:54.953Z,71.81
2023-02-06T17:10:56.774Z,71.86
2023-02-06T17:15:58.847Z,71.96
2023-02-06T17:21:00.849Z,72.04
2023-02-06T17:26:02.694Z,72.16
2023-02-06T17:31:04.665Z,72.28
2023-02-06T17:36:11.415Z,72.28
2023-02-06T17:41:13.570Z,72.55
2023-02-06T17:46:16.946Z,72.63
2023-02-06T17:51:18.803Z,72.66
2023-02-06T17:56:21.001Z,72.83
2023-02-06T18:01:24.086Z,73.03
2023-02-06T18:06:26.700Z,73.31
2023-02-06T18:11:29.042Z,73.42
2023-02-06T18:16:31.998Z,73.44
2023-02-06T18:21:33.837Z,73.73
2023-02-06T18:26:35.917Z,74.00
2023-02-06T18:31:37.804Z,74.16
2023-02-06T18:36:40.056Z,74.08
2023-02-06T18:42:00.904Z,74.38
2023-02-06T18:47:02.658Z,74.40
2023-02-06T18:52:05.112Z,74.72
2023-02-06T18:57:07.350Z,74.81
2023-02-06T19:02:11.971Z,75.10
2023-02-06T19:07:13.884Z,75.31
2023-02-06T19:12:15.690Z,75.36
2023-02-06T19:17:17.532Z,75.50
2023-02-06T19:22:19.649Z,75.76
2023-02-06T19:27:22.168Z,76.04
2023-02-06T19:32:26.361Z,76.46
2023-02-06T19:37:28.152Z,76.45
2023-02-06T19:42:30.044Z,76.67
2023-02-06T19:47:32.182Z,76.69
2023-02-06T19:52:35.532Z,76.66
2023-02-06T19:57:39.592Z,76.67
2023-02-06T20:02:41.986Z,76.70
2023-02-06T20:07:44.115Z,76.93
2023-02-06T20:12:47.012Z,77.24
2023-02-06T20:17:51.277Z,77.29
2023-02-06T20:22:53.291Z,77.38
2023-02-06T20:27:55.116Z,77.55
2023-02-06T20:32:57.330Z,77.53
2023-02-06T20:37:59.370Z,77.78
2023-02-06T20:43:01.256Z,77.77
2023-02-06T20:48:03.346Z,77.84
2023-02-06T20:53:06.079Z,78.25
2023-02-06T20:58:10.678Z,78.22
2023-02-06T21:03:13.154Z,78.33
2023-02-06T21:08:14.954Z,78.60
2023-02-06T21:13:17.809Z,78.53
2023-02-06T21:18:20.402Z,78.58
2023-02-06T21:23:24.228Z,78.45
2023-02-06T21:28:26.475Z,78.44
2023-02-06T21:33:28.626Z,78.51
2023-02-06T21:38:30.631Z,78.77
2023-02-06T21:43:32.944Z,78.62
2023-02-06T21:48:35.975Z,78.94
2023-02-06T21:53:38.695Z,78.77
2023-02-06T21:58:40.655Z,78.60
2023-02-06T22:03:44.623Z,78.69
2023-02-06T22:08:51.733Z,78.51
2023-02-06T22:14:01.395Z,78.80
2023-02-06T22:19:04.394Z,79.19
2023-02-06T22:24:07.779Z,79.19
2023-02-06T22:29:15.993Z,79.19
2023-02-06T22:34:20.811Z,79.36
2023-02-06T22:39:22.864Z,79.53
2023-02-06T22:44:24.727Z,79.60
2023-02-06T22:49:26.506Z,79.67
2023-02-06T22:54:28.369Z,79.77
2023-02-06T22:59:30.265Z,79.54
2023-02-06T23:04:36.162Z,79.61
2023-02-06T23:09:38.931Z,79.94
2023-02-06T23:14:40.729Z,80.19
2023-02-06T23:19:42.514Z,80.18
2023-02-06T23:24:44.417Z,80.02
2023-02-06T23:29:46.782Z,79.81
2023-02-06T23:34:48.648Z,79.99
2023-02-06T23:39:50.537Z,80.24
2023-02-06T23:44:52.288Z,80.54
2023-02-06T23:49:54.115Z,80.56
2023-02-06T23:54:55.887Z,80.62
2023-02-06T23:59:57.724Z,80.70
